Time;durP1;ratioP1;P1;durP2;ratioP2;P2;SDS_P1;SDS_P2;PMS_P1;PMS_P2;Temp;Humidity;BMP_temperature;BMP_pressure;BME280_temperature;BME280_humidity;BME280_pressure;Samples;Min_cycle;Max_cycle;Signal;HPM_P1;HPM_P2
2021/12/09 00:01:07;;;;;;;3.58;2.05;;;22.40;91.00;;;;;;5072231;28;20107;-61
2021/12/09 00:03:40;;;;;;;3.50;1.80;;;22.40;90.90;;;;;;5072101;28;20021;-60
2021/12/09 00:06:10;;;;;;;3.00;1.73;;;22.40;90.70;;;;;;5072678;28;20021;-60
2021/12/09 00:08:38;;;;;;;3.85;2.10;;;22.50;90.80;;;;;;5073011;28;20046;-57
2021/12/09 00:11:07;;;;;;;3.90;2.13;;;22.50;90.50;;;;;;5072557;28;20021;-53
2021/12/09 00:13:35;;;;;;;3.40;1.80;;;22.50;90.50;;;;;;5072355;28;20052;-49
2021/12/09 00:16:02;;;;;;;5.85;2.72;;;22.60;90.60;;;;;;5072606;28;20028;-59
2021/12/09 00:18:30;;;;;;;3.97;2.03;;;22.60;90.50;;;;;;5072602;28;20029;-60
2021/12/09 00:20:57;;;;;;;6.80;1.92;;;22.70;90.40;;;;;;5073183;28;20029;-58
2021/12/09 00:23:25;;;;;;;5.63;2.05;;;22.60;90.30;;;;;;5072668;28;20024;-58
2021/12/09 00:25:52;;;;;;;4.43;1.88;;;22.70;90.30;;;;;;5072364;28;20104;-52
2021/12/09 00:28:20;;;;;;;2.92;1.52;;;22.80;90.20;;;;;;5072469;28;20486;-59
2021/12/09 00:30:47;;;;;;;4.40;2.42;;;22.90;90.10;;;;;;5072412;28;20126;-55
2021/12/09 00:33:16;;;;;;;4.18;1.95;;;22.90;90.00;;;;;;5072538;28;20096;-55
2021/12/09 00:35:49;;;;;;;7.68;1.83;;;22.90;90.00;;;;;;5072558;28;20036;-55
2021/12/09 00:38:24;;;;;;;4.53;1.92;;;23.00;90.10;;;;;;5072049;28;20337;-54
2021/12/09 00:40:52;;;;;;;5.57;2.30;;;23.00;90.00;;;;;;5072893;28;20468;-50
2021/12/09 00:43:20;;;;;;;3.55;1.40;;;23.10;90.00;;;;;;5073046;28;20036;-57
2021/12/09 00:45:47;;;;;;;3.80;1.73;;;23.10;90.00;;;;;;5073016;28;20025;-60
2021/12/09 00:48:15;;;;;;;3.08;1.80;;;23.10;90.00;;;;;;5072625;28;20476;-58
2021/12/09 00:50:42;;;;;;;3.40;1.73;;;23.20;89.30;;;;;;5073518;28;20021;-56
2021/12/09 00:53:10;;;;;;;2.85;1.55;;;23.20;88.30;;;;;;5073544;28;20028;-53
2021/12/09 00:55:38;;;;;;;4.88;1.80;;;23.30;89.20;;;;;;5072725;28;20048;-54
2021/12/09 00:58:06;;;;;;;4.53;1.92;;;23.30;89.10;;;;;;5071722;28;20036;-55
2021/12/09 01:00:33;;;;;;;3.50;2.00;;;23.40;88.90;;;;;;5071318;28;20033;-58
2021/12/09 01:03:01;;;;;;;2.97;1.73;;;23.50;88.30;;;;;;5072873;28;20036;-59
2021/12/09 01:05:29;;;;;;;4.00;1.40;;;23.50;87.90;;;;;;5073146;28;20047;-57
2021/12/09 01:07:57;;;;;;;3.67;1.70;;;23.60;88.30;;;;;;5072818;28;20616;-58
2021/12/09 01:10:25;;;;;;;3.95;1.55;;;23.60;88.00;;;;;;5072709;28;20017;-58
2021/12/09 01:12:53;;;;;;;2.92;1.27;;;23.70;88.10;;;;;;5071138;28;20073;-56
2021/12/09 01:15:21;;;;;;;4.15;2.10;;;23.70;88.00;;;;;;5071153;28;20112;-56
2021/12/09 01:17:49;;;;;;;3.13;1.65;;;23.60;88.10;;;;;;5071914;28;20032;-59
2021/12/09 01:20:18;;;;;;;4.22;1.90;;;23.60;88.50;;;;;;5076461;28;20032;-54
2021/12/09 01:22:47;;;;;;;5.25;2.25;;;23.50;88.80;;;;;;5076470;28;20510;-57
2021/12/09 01:25:17;;;;;;;4.30;1.65;;;23.60;88.80;;;;;;5076024;28;20116;-62
2021/12/09 01:27:47;;;;;;;3.85;1.80;;;23.60;89.00;;;;;;5075082;28;20069;-59
2021/12/09 01:30:18;;;;;;;4.85;2.03;;;23.70;88.70;;;;;;5075261;28;20024;-54
2021/12/09 01:32:49;;;;;;;5.00;1.70;;;23.60;89.20;;;;;;5076067;28;20031;-61
2021/12/09 01:35:20;;;;;;;4.22;1.70;;;23.70;89.00;;;;;;5075997;28;20017;-56
2021/12/09 01:37:52;;;;;;;4.88;2.20;;;23.70;88.80;;;;;;5075784;28;20067;-60
2021/12/09 01:40:20;;;;;;;7.28;2.35;;;23.80;88.60;;;;;;5075711;28;20100;-59
2021/12/09 01:42:48;;;;;;;3.97;1.77;;;23.80;89.00;;;;;;5075762;28;20059;-62
2021/12/09 01:45:15;;;;;;;4.35;1.80;;;23.80;88.60;;;;;;5075690;28;20525;-58
2021/12/09 01:47:43;;;;;;;2.50;1.77;;;23.90;88.30;;;;;;5075013;28;20430;-59
2021/12/09 01:50:12;;;;;;;4.57;1.95;;;23.90;88.30;;;;;;5075413;28;20085;-57
2021/12/09 01:52:39;;;;;;;4.63;1.88;;;24.00;88.20;;;;;;5075758;28;20063;-61
2021/12/09 01:55:10;;;;;;;4.82;2.10;;;24.10;87.80;;;;;;5074967;28;20460;-60
2021/12/09 01:57:37;;;;;;;5.43;2.25;;;24.10;87.90;;;;;;5075235;28;20033;-55
2021/12/09 02:00:11;;;;;;;4.20;1.92;;;24.10;87.30;;;;;;5075356;28;20028;-61
2021/12/09 02:02:41;;;;;;;4.78;1.90;;;24.10;87.50;;;;;;5075605;28;20094;-59
2021/12/09 02:05:10;;;;;;;2.75;1.45;;;24.20;87.20;;;;;;5075414;28;20020;-57
2021/12/09 02:07:39;;;;;;;6.50;2.28;;;24.10;87.60;;;;;;5075159;28;20033;-58
2021/12/09 02:10:10;;;;;;;3.45;1.92;;;24.20;87.50;;;;;;5074763;28;20055;-58
2021/12/09 02:12:37;;;;;;;3.40;1.95;;;24.20;87.50;;;;;;5075461;28;20373;-56
2021/12/09 02:15:06;;;;;;;4.07;2.08;;;24.20;87.50;;;;;;5074862;28;20107;-56
2021/12/09 02:17:34;;;;;;;3.70;1.77;;;24.20;87.60;;;;;;5074733;28;20502;-58
2021/12/09 02:20:04;;;;;;;2.63;1.40;;;24.30;87.10;;;;;;5074739;28;20151;-60
2021/12/09 02:22:32;;;;;;;2.42;1.70;;;24.20;87.30;;;;;;5074710;28;20035;-54
2021/12/09 02:24:59;;;;;;;3.13;1.70;;;24.30;87.40;;;;;;5074327;28;20511;-59
2021/12/09 02:27:27;;;;;;;3.85;1.63;;;24.30;87.70;;;;;;5074927;28;20102;-53
2021/12/09 02:29:56;;;;;;;3.63;1.48;;;24.30;87.70;;;;;;5064841;28;20028;-57
2021/12/09 02:32:23;;;;;;;2.72;1.67;;;24.40;87.10;;;;;;5068721;28;20111;-52
2021/12/09 02:34:51;;;;;;;3.45;1.58;;;24.40;87.40;;;;;;5071850;28;20076;-54
2021/12/09 02:37:19;;;;;;;5.70;1.85;;;24.50;87.40;;;;;;5069654;28;20025;-53
2021/12/09 02:39:47;;;;;;;5.45;1.95;;;24.50;87.40;;;;;;5067995;28;20028;-55
2021/12/09 02:42:15;;;;;;;4.30;1.80;;;24.50;87.50;;;;;;5071511;28;20028;-49
2021/12/09 02:44:43;;;;;;;3.22;1.70;;;24.60;87.00;;;;;;5072161;28;20083;-54
2021/12/09 02:47:11;;;;;;;3.45;1.75;;;24.60;86.40;;;;;;5066822;28;20075;-56
2021/12/09 02:49:38;;;;;;;3.08;1.85;;;24.70;86.90;;;;;;5071479;28;20060;-55
2021/12/09 02:52:06;;;;;;;9.57;2.05;;;24.60;87.30;;;;;;5071221;28;20030;-54
2021/12/09 02:54:34;;;;;;;4.90;1.77;;;24.60;87.50;;;;;;5070497;28;20048;-52
2021/12/09 02:57:05;;;;;;;6.70;1.83;;;24.70;86.60;;;;;;5068532;28;20028;-54
2021/12/09 02:59:33;;;;;;;2.65;1.35;;;24.80;87.00;;;;;;5071655;28;20028;-53
2021/12/09 03:02:04;;;;;;;4.18;1.80;;;24.70;86.60;;;;;;5069826;28;20024;-54
2021/12/09 03:04:47;;;;;;;5.60;1.60;;;24.80;86.70;;;;;;5071355;28;20086;-54
2021/12/09 03:07:25;;;;;;;3.90;1.42;;;24.80;86.10;;;;;;5067753;28;21093;-56
2021/12/09 03:09:59;;;;;;;4.05;1.50;;;24.80;86.90;;;;;;5073353;28;20375;-58
2021/12/09 03:12:33;;;;;;;3.65;1.85;;;24.70;87.10;;;;;;5073603;28;20031;-60
2021/12/09 03:15:02;;;;;;;4.68;1.85;;;24.70;87.30;;;;;;5073624;28;20099;-53
2021/12/09 03:17:30;;;;;;;5.95;2.05;;;24.60;87.70;;;;;;5073267;28;20510;-59
2021/12/09 03:19:58;;;;;;;3.88;1.70;;;24.60;87.80;;;;;;5074009;28;20082;-50
2021/12/09 03:22:25;;;;;;;4.00;1.58;;;24.70;87.80;;;;;;5074387;28;20051;-46
2021/12/09 03:24:54;;;;;;;6.65;2.00;;;24.70;88.20;;;;;;5072964;28;20124;-48
2021/12/09 03:27:32;;;;;;;3.88;1.73;;;24.70;87.90;;;;;;5074240;28;20024;-50
2021/12/09 03:30:00;;;;;;;5.70;1.65;;;24.70;88.20;;;;;;5074197;28;20073;-49
2021/12/09 03:32:28;;;;;;;4.75;2.13;;;24.70;87.10;;;;;;5073709;28;20028;-59
2021/12/09 03:34:55;;;;;;;4.13;1.70;;;24.70;87.50;;;;;;5072854;28;20029;-56
2021/12/09 03:37:27;;;;;;;5.18;1.80;;;24.70;88.30;;;;;;5070788;28;20032;-59
2021/12/09 03:39:56;;;;;;;3.30;1.65;;;24.70;88.20;;;;;;5071666;28;20448;-55
2021/12/09 03:42:27;;;;;;;3.03;1.40;;;24.60;88.30;;;;;;5072567;28;20480;-58
2021/12/09 03:44:56;;;;;;;4.75;1.83;;;24.70;88.10;;;;;;5073243;28;20036;-54
2021/12/09 03:47:26;;;;;;;5.20;2.10;;;24.60;88.50;;;;;;5072867;28;20481;-58
2021/12/09 03:49:54;;;;;;;5.68;2.38;;;24.60;87.30;;;;;;5063065;28;20086;-54
2021/12/09 03:52:22;;;;;;;5.35;1.98;;;24.60;87.90;;;;;;5070294;28;20016;-56
2021/12/09 03:54:50;;;;;;;3.55;1.42;;;24.50;88.30;;;;;;5069510;28;20473;-52
2021/12/09 03:57:17;;;;;;;3.47;1.40;;;24.50;88.70;;;;;;5068711;28;20028;-54
2021/12/09 03:59:46;;;;;;;5.78;1.90;;;24.40;89.30;;;;;;5069965;28;20337;-56
2021/12/09 04:02:14;;;;;;;3.85;1.58;;;24.40;89.50;;;;;;5067953;28;20429;-54
2021/12/09 04:04:42;;;;;;;3.72;1.52;;;24.30;89.20;;;;;;5066197;28;20032;-55
2021/12/09 04:07:10;;;;;;;5.18;1.95;;;24.40;89.40;;;;;;5066718;28;20040;-50
2021/12/09 04:09:38;;;;;;;5.00;2.20;;;24.40;89.40;;;;;;5070251;28;20029;-50
2021/12/09 04:12:07;;;;;;;8.25;2.25;;;24.40;89.60;;;;;;5069223;28;20482;-55
2021/12/09 04:14:35;;;;;;;3.40;1.77;;;24.50;88.90;;;;;;5069850;28;20028;-55
2021/12/09 04:17:02;;;;;;;5.47;1.70;;;24.50;89.80;;;;;;5066576;28;20029;-55
2021/12/09 04:19:30;;;;;;;5.90;2.38;;;24.50;89.40;;;;;;5069242;28;20033;-50
2021/12/09 04:21:57;;;;;;;4.20;1.95;;;24.50;89.10;;;;;;5069515;28;20024;-54
2021/12/09 04:24:24;;;;;;;3.42;1.52;;;24.50;89.00;;;;;;5069113;28;20032;-57
2021/12/09 04:26:59;;;;;;;3.40;1.40;;;24.50;89.00;;;;;;5064264;28;20085;-51
2021/12/09 04:29:26;;;;;;;4.82;1.90;;;24.50;89.20;;;;;;5068841;28;20104;-56
2021/12/09 04:31:54;;;;;;;5.88;2.05;;;24.50;89.00;;;;;;5069482;28;20074;-49
2021/12/09 04:34:25;;;;;;;4.32;1.90;;;24.50;89.40;;;;;;5068543;28;20032;-53
2021/12/09 04:36:56;;;;;;;3.55;1.60;;;24.60;89.10;;;;;;5063130;28;20075;-49
2021/12/09 04:39:42;;;;;;;4.10;1.73;;;24.50;89.10;;;;;;5070528;28;20086;-55
2021/12/09 04:42:09;;;;;;;4.00;1.80;;;24.50;89.20;;;;;;5068982;28;20029;-58
2021/12/09 04:44:37;;;;;;;5.22;2.13;;;24.50;89.20;;;;;;5069141;28;20025;-52
2021/12/09 04:47:04;;;;;;;7.00;1.88;;;24.50;88.30;;;;;;5066169;28;20025;-55
2021/12/09 04:49:32;;;;;;;7.45;2.80;;;24.50;88.90;;;;;;5069144;28;20020;-53
2021/12/09 04:52:00;;;;;;;3.72;1.80;;;24.50;85.40;;;;;;5065479;28;20029;-53
2021/12/09 04:54:28;;;;;;;5.95;2.15;;;24.30;89.90;;;;;;5070882;28;20056;-60
2021/12/09 04:56:55;;;;;;;6.45;2.42;;;24.10;85.80;;;;;;5069815;28;20035;-56
2021/12/09 04:59:23;;;;;;;7.28;1.98;;;24.00;90.30;;;;;;5072561;28;20043;-54
2021/12/09 05:01:50;;;;;;;5.68;1.80;;;23.90;90.50;;;;;;5072935;28;20024;-59
2021/12/09 05:04:18;;;;;;;11.35;2.30;;;24.00;90.20;;;;;;5072142;28;20119;-57
2021/12/09 05:06:46;;;;;;;6.18;2.05;;;24.00;89.90;;;;;;5069927;28;20061;-54
2021/12/09 05:09:17;;;;;;;9.40;2.13;;;24.00;90.60;;;;;;5073360;28;20024;-54
2021/12/09 05:14:13;;;;;;;6.10;1.98;;;23.90;87.80;;;;;;5072872;28;20028;-59
2021/12/09 05:16:41;;;;;;;12.35;2.53;;;23.70;88.70;;;;;;5071441;28;20020;-54
2021/12/09 05:19:08;;;;;;;6.78;1.88;;;23.80;90.90;;;;;;5071829;28;20123;-58
2021/12/09 05:21:39;;;;;;;8.20;2.30;;;23.70;90.30;;;;;;5072990;28;20112;-58
2021/12/09 05:24:14;;;;;;;7.18;2.22;;;23.60;90.90;;;;;;5105060;28;20029;-56
2021/12/09 05:26:53;;;;;;;7.45;2.03;;;23.60;90.40;;;;;;5066926;28;20025;-53
2021/12/09 05:29:27;;;;;;;8.85;1.77;;;23.60;91.10;;;;;;5072086;28;20027;-57
2021/12/09 05:32:13;;;;;;;9.13;3.00;;;23.50;88.10;;;;;;5072345;28;20043;-58
2021/12/09 05:34:51;;;;;;;11.63;2.67;;;23.40;90.40;;;;;;5072669;28;20021;-60
2021/12/09 05:37:24;;;;;;;7.22;2.70;;;23.20;89.10;;;;;;5069323;28;20081;-58
2021/12/09 05:39:54;;;;;;;8.20;2.15;;;23.20;89.40;;;;;;5070355;28;20519;-52
2021/12/09 05:42:23;;;;;;;6.80;2.38;;;23.20;91.30;;;;;;5072523;28;20033;-61
2021/12/09 05:44:52;;;;;;;8.02;2.20;;;23.10;90.60;;;;;;5073158;28;20035;-53
2021/12/09 05:47:19;;;;;;;8.10;3.50;;;22.90;91.10;;;;;;5069910;28;20031;-61
2021/12/09 05:49:49;;;;;;;4.55;1.85;;;22.80;90.10;;;;;;5072265;28;20032;-53
2021/12/09 05:52:17;;;;;;;14.10;4.90;;;22.80;90.50;;;;;;5071501;28;20024;-58
2021/12/09 05:54:45;;;;;;;8.40;2.33;;;23.20;90.90;;;;;;5072442;28;20033;-56
2021/12/09 05:57:12;;;;;;;12.82;2.60;;;23.30;91.10;;;;;;5068151;28;20036;-53
2021/12/09 05:59:41;;;;;;;10.98;2.40;;;23.10;91.90;;;;;;5073196;28;20028;-55
2021/12/09 06:02:13;;;;;;;13.55;2.83;;;22.90;92.10;;;;;;5071824;28;20033;-59
2021/12/09 06:04:41;;;;;;;18.58;4.28;;;22.90;93.20;;;;;;5071111;28;20451;-56
2021/12/09 06:07:10;;;;;;;11.65;3.58;;;22.70;94.40;;;;;;5068815;28;20051;-57
2021/12/09 06:09:38;;;;;;;11.25;3.28;;;22.00;94.80;;;;;;5072307;28;20711;-56
2021/12/09 06:12:06;;;;;;;10.07;3.05;;;21.90;95.80;;;;;;5071126;28;20528;-56
2021/12/09 06:14:34;;;;;;;14.20;3.67;;;21.80;97.20;;;;;;5071824;28;20495;-55
2021/12/09 06:17:01;;;;;;;13.85;3.92;;;22.00;97.10;;;;;;5068004;28;20401;-58
2021/12/09 06:19:29;;;;;;;10.35;2.28;;;21.90;96.70;;;;;;5071693;28;20028;-57
2021/12/09 06:21:56;;;;;;;7.15;2.65;;;21.70;97.20;;;;;;5070763;28;20017;-53
2021/12/09 06:24:24;;;;;;;9.13;2.78;;;21.90;96.40;;;;;;5070919;28;20025;-53
2021/12/09 06:26:51;;;;;;;7.78;3.10;;;21.70;96.80;;;;;;5064477;28;20500;-49
2021/12/09 06:29:19;;;;;;;7.85;4.38;;;21.90;96.20;;;;;;5070917;28;20032;-52
2021/12/09 06:31:46;;;;;;;9.60;5.70;;;22.00;95.90;;;;;;5071470;28;20839;-54
2021/12/09 06:34:14;;;;;;;21.02;10.45;;;21.90;96.30;;;;;;5070637;28;20044;-54
2021/12/09 06:36:42;;;;;;;16.42;5.10;;;21.90;96.50;;;;;;5069620;28;20025;-60
2021/12/09 06:39:12;;;;;;;12.50;6.00;;;22.10;96.20;;;;;;5069496;28;20029;-59
2021/12/09 06:41:40;;;;;;;14.52;11.20;;;22.20;95.50;;;;;;5069362;28;20483;-60
2021/12/09 06:44:08;;;;;;;16.65;11.32;;;22.50;95.10;;;;;;5071361;28;20060;-58
2021/12/09 06:46:35;;;;;;;21.58;14.18;;;22.70;94.70;;;;;;5069612;28;20033;-59
2021/12/09 06:49:03;;;;;;;15.30;11.32;;;22.80;94.10;;;;;;5068932;28;20097;-58
2021/12/09 06:51:31;;;;;;;9.05;7.82;;;22.80;93.70;;;;;;5071168;28;20093;-57
2021/12/09 06:53:58;;;;;;;12.02;8.50;;;22.90;93.40;;;;;;5070566;28;20048;-58
2021/12/09 06:56:36;;;;;;;10.27;7.75;;;22.90;93.30;;;;;;5071139;28;20109;-58
2021/12/09 06:59:04;;;;;;;10.90;6.53;;;22.90;93.30;;;;;;5068869;28;20068;-60
2021/12/09 07:01:43;;;;;;;9.52;7.38;;;22.90;93.30;;;;;;5069875;28;20046;-62
2021/12/09 07:04:10;;;;;;;11.30;6.93;;;22.90;93.30;;;;;;5070121;28;20029;-58
2021/12/09 07:06:38;;;;;;;11.02;7.45;;;22.90;93.60;;;;;;5068955;28;20028;-53
2021/12/09 07:09:06;;;;;;;12.05;7.10;;;22.90;93.40;;;;;;5067851;28;20540;-55
2021/12/09 07:11:34;;;;;;;12.48;8.48;;;22.90;93.60;;;;;;5070586;28;20024;-55
2021/12/09 07:14:01;;;;;;;11.00;6.53;;;22.90;93.40;;;;;;5063826;28;20343;-56
2021/12/09 07:16:29;;;;;;;10.18;6.07;;;22.90;93.60;;;;;;5065889;28;20020;-54
2021/12/09 07:18:58;;;;;;;9.88;4.97;;;23.00;93.50;;;;;;5068407;28;20491;-56
2021/12/09 07:21:26;;;;;;;8.13;3.60;;;23.00;93.30;;;;;;5070821;28;20089;-57
2021/12/09 07:23:53;;;;;;;5.20;2.47;;;23.00;93.00;;;;;;5069988;28;20059;-57
2021/12/09 07:26:21;;;;;;;6.10;2.83;;;23.00;93.00;;;;;;5071254;28;20376;-58
2021/12/09 07:28:48;;;;;;;6.30;2.45;;;23.00;93.00;;;;;;5067615;28;20040;-52
2021/12/09 07:31:16;;;;;;;5.00;2.97;;;22.90;93.00;;;;;;5071021;28;20086;-52
2021/12/09 07:33:43;;;;;;;5.15;2.92;;;23.00;93.10;;;;;;5071042;28;20016;-51
2021/12/09 07:36:11;;;;;;;4.60;2.70;;;23.00;93.10;;;;;;5067358;28;20063;-57
2021/12/09 07:38:41;;;;;;;4.88;2.58;;;23.00;93.20;;;;;;5072649;28;20048;-56
2021/12/09 07:41:09;;;;;;;4.60;2.72;;;22.90;93.20;;;;;;5073131;28;20360;-60
2021/12/09 07:43:36;;;;;;;7.35;2.85;;;22.90;93.20;;;;;;5073238;28;20357;-62
2021/12/09 07:46:03;;;;;;;3.80;2.40;;;22.90;93.40;;;;;;5072977;28;20034;-62
2021/12/09 07:48:31;;;;;;;7.95;2.95;;;22.90;93.80;;;;;;5073011;28;20131;-57
2021/12/09 07:50:58;;;;;;;6.75;2.85;;;22.90;93.70;;;;;;5073043;28;20024;-63
2021/12/09 07:53:26;;;;;;;5.97;2.30;;;22.90;93.90;;;;;;5062996;28;20040;-58
2021/12/09 07:55:54;;;;;;;6.75;2.78;;;22.80;94.00;;;;;;5069118;28;20395;-60
2021/12/09 07:58:23;;;;;;;5.85;2.63;;;22.80;94.20;;;;;;5070032;28;20169;-60
2021/12/09 08:00:51;;;;;;;8.75;2.70;;;22.80;94.40;;;;;;5066784;28;20032;-52
2021/12/09 08:03:18;;;;;;;8.48;3.03;;;22.70;94.50;;;;;;5066711;28;20066;-57
2021/12/09 08:05:47;;;;;;;14.63;3.78;;;22.80;94.80;;;;;;5070428;28;20027;-53
2021/12/09 08:08:16;;;;;;;12.35;3.17;;;22.80;94.70;;;;;;5069776;28;20029;-58
2021/12/09 08:10:43;;;;;;;10.93;3.40;;;22.80;94.90;;;;;;5069896;28;20696;-63
2021/12/09 08:13:13;;;;;;;12.95;3.42;;;22.90;94.80;;;;;;5065768;28;20028;-58
2021/12/09 08:15:45;;;;;;;10.13;3.33;;;22.80;94.80;;;;;;5070521;28;20042;-63
2021/12/09 08:20:52;;;;;;;7.47;3.70;;;22.90;95.20;;;;;;5071022;28;20050;-64
2021/12/09 08:23:20;;;;;;;9.52;3.58;;;22.90;95.50;;;;;;5064534;28;20024;-63
2021/12/09 08:25:48;;;;;;;10.30;4.03;;;22.90;95.40;;;;;;5069310;28;20414;-62
2021/12/09 08:28:16;;;;;;;8.95;3.55;;;22.90;95.70;;;;;;5070290;28;20029;-67
2021/12/09 08:30:44;;;;;;;11.18;3.13;;;22.90;95.60;;;;;;5073269;28;20052;-62
2021/12/09 08:33:12;;;;;;;9.77;2.95;;;22.90;95.90;;;;;;5073464;28;20024;-59
2021/12/09 08:35:40;;;;;;;10.75;3.63;;;22.90;95.90;;;;;;5073287;28;20518;-61
2021/12/09 08:38:08;;;;;;;12.52;4.00;;;22.90;95.90;;;;;;5072630;28;20072;-68
2021/12/09 08:40:37;;;;;;;8.93;3.53;;;22.90;96.40;;;;;;5076102;28;20025;-66
2021/12/09 08:43:05;;;;;;;10.18;3.90;;;22.80;96.80;;;;;;5075310;28;20483;-53
2021/12/09 08:45:32;;;;;;;12.70;4.15;;;22.80;96.90;;;;;;5073699;28;20098;-59
2021/12/09 08:48:04;;;;;;;12.45;4.80;;;22.80;96.80;;;;;;5074906;28;20024;-64
2021/12/09 08:50:33;;;;;;;7.90;4.17;;;22.80;96.90;;;;;;5074256;28;20069;-61
2021/12/09 08:53:04;;;;;;;12.68;4.40;;;22.80;97.10;;;;;;5073632;28;20032;-56
2021/12/09 08:55:35;;;;;;;11.80;4.40;;;22.80;97.30;;;;;;5072201;28;20044;-58
2021/12/09 08:58:02;;;;;;;12.02;4.10;;;22.80;97.20;;;;;;5071977;28;20069;-67
2021/12/09 09:00:33;;;;;;;9.43;3.85;;;22.90;97.00;;;;;;5071304;28;20044;-70
2021/12/09 09:03:03;;;;;;;8.88;4.13;;;22.90;96.90;;;;;;5071406;28;20039;-65
2021/12/09 09:05:35;;;;;;;15.95;3.75;;;22.90;97.10;;;;;;5070338;28;20487;-58
2021/12/09 09:08:02;;;;;;;;;;;22.90;97.50;;;;;;5072313;28;20491;-59
2021/12/09 09:10:32;;;;;;;11.32;3.95;;;22.90;97.10;;;;;;5071873;28;19905;-64
2021/12/09 09:13:00;;;;;;;5.85;2.97;;;22.90;96.40;;;;;;5073313;28;20044;-67
2021/12/09 09:15:31;;;;;;;8.55;3.97;;;22.80;96.00;;;;;;5072668;28;20031;-66
2021/12/09 09:18:00;;;;;;;7.43;2.80;;;22.80;95.60;;;;;;5073001;28;20446;-62
2021/12/09 09:20:30;;;;;;;7.55;2.90;;;22.70;95.30;;;;;;5073636;28;20107;-63
2021/12/09 09:22:59;;;;;;;7.80;3.03;;;22.70;95.40;;;;;;5072936;28;20108;-59
2021/12/09 09:25:29;;;;;;;4.93;2.92;;;22.70;95.80;;;;;;5072431;28;20024;-60
2021/12/09 09:28:01;;;;;;;7.10;3.30;;;22.70;95.60;;;;;;5072138;28;20464;-58
2021/12/09 09:30:36;;;;;;;;;;;22.60;95.40;;;;;;5072662;28;20032;-59
2021/12/09 09:33:08;;;;;;;9.15;3.30;;;22.60;95.40;;;;;;5072457;28;19904;-60
2021/12/09 09:35:37;;;;;;;7.78;2.83;;;22.60;95.30;;;;;;5072179;28;20115;-56
2021/12/09 09:38:06;;;;;;;8.13;2.70;;;22.60;95.30;;;;;;5072110;28;20464;-57
2021/12/09 09:40:49;;;;;;;7.85;2.90;;;22.50;95.40;;;;;;5074695;28;20081;-49
2021/12/09 09:43:44;;;;;;;12.27;3.25;;;22.50;95.40;;;;;;5074510;28;20112;-58
2021/12/09 09:46:14;;;;;;;5.10;2.90;;;22.50;95.40;;;;;;5068811;28;20129;-51
2021/12/09 09:48:43;;;;;;;7.93;2.70;;;22.50;95.80;;;;;;5071766;28;20053;-52
2021/12/09 09:51:12;;;;;;;9.35;3.15;;;22.50;95.70;;;;;;5070472;28;20025;-51
2021/12/09 09:53:41;;;;;;;7.65;2.75;;;22.40;95.60;;;;;;5069869;28;20028;-54
2021/12/09 09:56:16;;;;;;;6.13;2.78;;;22.40;95.50;;;;;;5073113;28;20031;-56
2021/12/09 09:58:54;;;;;;;6.68;2.58;;;22.40;95.30;;;;;;5066703;28;20037;-56
2021/12/09 10:01:24;;;;;;;5.60;2.58;;;22.40;95.30;;;;;;5070381;28;20498;-50
2021/12/09 10:03:59;;;;;;;5.60;2.75;;;22.40;95.20;;;;;;5070063;28;20032;-48
2021/12/09 10:06:26;;;;;;;7.43;2.75;;;22.40;95.20;;;;;;5071581;28;20047;-55
2021/12/09 10:08:54;;;;;;;5.80;2.45;;;22.40;95.30;;;;;;5066821;28;20475;-59
2021/12/09 10:11:21;;;;;;;5.80;2.95;;;22.40;95.30;;;;;;5070228;28;20082;-54
2021/12/09 10:13:49;;;;;;;5.68;2.75;;;22.40;95.30;;;;;;5072276;28;20086;-55
2021/12/09 10:16:20;;;;;;;4.60;2.72;;;22.30;95.30;;;;;;5069802;28;20037;-58
2021/12/09 10:18:51;;;;;;;8.00;3.15;;;22.30;95.30;;;;;;5069382;28;20132;-54
2021/12/09 10:21:30;;;;;;;6.97;2.97;;;22.30;95.30;;;;;;5072850;28;20024;-61
2021/12/09 10:24:04;;;;;;;5.07;2.50;;;22.30;95.30;;;;;;5072016;28;20115;-55
2021/12/09 10:26:37;;;;;;;6.32;2.67;;;22.30;95.30;;;;;;5072860;28;20104;-57
2021/12/09 10:29:17;;;;;;;6.03;2.58;;;22.30;95.30;;;;;;5069056;28;20025;-57
2021/12/09 10:31:58;;;;;;;6.18;2.60;;;22.30;95.30;;;;;;5070162;28;20025;-55
2021/12/09 10:34:37;;;;;;;11.10;3.22;;;22.30;95.30;;;;;;5071375;28;20028;-54
2021/12/09 10:37:16;;;;;;;8.25;3.03;;;22.30;95.30;;;;;;5068763;28;20483;-52
2021/12/09 10:39:47;;;;;;;5.35;2.92;;;22.30;95.30;;;;;;5067051;28;20060;-57
2021/12/09 10:42:18;;;;;;;8.23;2.80;;;22.20;95.30;;;;;;5071808;28;20025;-54
2021/12/09 10:44:50;;;;;;;6.93;2.95;;;22.20;95.30;;;;;;5072013;28;20016;-58
2021/12/09 10:47:25;;;;;;;;;;;22.20;95.30;;;;;;5072017;28;20041;-51
2021/12/09 10:50:21;;;;;;;5.30;2.80;;;22.20;95.20;;;;;;5068387;28;20413;-49
2021/12/09 10:52:55;;;;;;;7.38;2.50;;;22.30;95.50;;;;;;5069195;28;20444;-60
2021/12/09 10:55:30;;;;;;;6.82;2.72;;;22.20;95.20;;;;;;5070748;28;20057;-56
2021/12/09 10:58:08;;;;;;;4.38;2.50;;;22.20;95.20;;;;;;5068577;28;20123;-52
2021/12/09 11:00:37;;;;;;;7.70;2.80;;;22.20;95.20;;;;;;5071724;28;20028;-61
2021/12/09 11:03:07;;;;;;;5.15;2.50;;;22.20;95.20;;;;;;5071836;28;20025;-53
2021/12/09 11:05:45;;;;;;;5.15;2.92;;;22.20;95.20;;;;;;5071735;28;20500;-58
2021/12/09 11:08:27;;;;;;;5.82;2.88;;;22.20;95.20;;;;;;5064675;28;20033;-47
2021/12/09 11:11:05;;;;;;;6.72;2.97;;;22.10;95.10;;;;;;5069311;28;20028;-56
2021/12/09 11:13:42;;;;;;;6.05;2.67;;;22.10;95.10;;;;;;5072085;28;20033;-52
2021/12/09 11:16:22;;;;;;;6.82;2.38;;;22.10;95.10;;;;;;5070824;28;20024;-54
2021/12/09 11:18:51;;;;;;;5.30;2.35;;;22.10;95.10;;;;;;5064769;28;20097;-59
2021/12/09 11:21:32;;;;;;;5.40;2.38;;;22.10;95.10;;;;;;5070311;28;20032;-51
2021/12/09 11:24:08;;;;;;;4.43;1.90;;;22.10;95.10;;;;;;5069407;28;20043;-58
2021/12/09 11:29:25;;;;;;;6.22;3.15;;;22.10;95.10;;;;;;5068142;28;20017;-58
2021/12/09 11:32:03;;;;;;;5.32;2.58;;;22.10;95.20;;;;;;5068058;28;20154;-52
2021/12/09 11:34:45;;;;;;;3.53;2.20;;;22.10;95.10;;;;;;5070242;28;20475;-55
2021/12/09 11:37:47;;;;;;;6.43;2.83;;;22.10;95.10;;;;;;5071022;28;20039;-51
2021/12/09 11:40:35;;;;;;;4.93;2.53;;;22.10;95.10;;;;;;5066729;28;20056;-49
2021/12/09 11:43:10;;;;;;;3.50;1.90;;;22.00;95.10;;;;;;5068707;28;20033;-52
2021/12/09 11:45:41;;;;;;;5.72;2.22;;;22.10;95.10;;;;;;5070783;28;20077;-58
2021/12/09 11:48:32;;;;;;;3.95;2.15;;;22.00;95.10;;;;;;5065648;28;20226;-49
2021/12/09 11:50:59;;;;;;;3.50;1.90;;;22.00;95.10;;;;;;5064014;28;20036;-59
2021/12/09 11:53:38;;;;;;;5.70;2.20;;;22.00;95.10;;;;;;5070736;28;20092;-49
2021/12/09 11:56:20;;;;;;;2.75;2.03;;;22.00;95.10;;;;;;5069704;28;20111;-55
2021/12/09 11:59:20;;;;;;;6.23;2.67;;;22.00;95.10;;;;;;5067300;28;20203;-56
2021/12/09 12:11:06;;;;;;;6.38;2.38;;;21.90;95.20;;;;;;5059923;28;20422;-48
2021/12/09 12:13:40;;;;;;;4.85;2.17;;;21.90;95.20;;;;;;5070928;28;20120;-58
2021/12/09 12:16:59;;;;;;;9.40;2.10;;;21.90;95.30;;;;;;5073072;28;20124;-57
2021/12/09 12:20:25;;;;;;;7.70;2.35;;;21.90;95.20;;;;;;5073323;28;20032;-59
2021/12/09 12:25:45;;;;;;;4.20;1.95;;;21.90;95.20;;;;;;5072162;28;20023;-58
2021/12/09 12:39:58;;;;;;;7.90;2.33;;;21.80;95.20;;;;;;5065858;28;20047;-60
2021/12/09 12:42:51;;;;;;;4.25;2.15;;;21.70;95.30;;;;;;5068715;28;20092;-59
2021/12/09 12:46:05;;;;;;;3.50;2.15;;;21.70;95.30;;;;;;5068716;28;20040;-58
2021/12/09 12:51:09;;;;;;;3.17;1.88;;;21.70;95.30;;;;;;5065061;28;20025;-55
2021/12/09 12:53:42;;;;;;;5.03;2.33;;;21.60;95.30;;;;;;5068121;28;20052;-56
2021/12/09 12:56:23;;;;;;;4.72;2.63;;;21.60;95.30;;;;;;5068953;28;20102;-56
2021/12/09 12:59:13;;;;;;;4.82;2.22;;;21.60;95.40;;;;;;5069949;28;20407;-59
2021/12/09 13:01:49;;;;;;;4.82;2.03;;;21.60;95.30;;;;;;5064458;28;20029;-59
2021/12/09 13:16:16;;;;;;;5.03;2.30;;;21.50;95.40;;;;;;5073379;28;20020;-60
2021/12/09 13:19:00;;;;;;;3.92;2.03;;;21.50;95.40;;;;;;5074603;28;20040;-59
2021/12/09 13:21:33;;;;;;;4.65;1.80;;;21.50;95.40;;;;;;5076439;28;20032;-60
2021/12/09 13:24:24;;;;;;;6.18;1.90;;;21.50;95.40;;;;;;5070079;28;20021;-51
2021/12/09 13:27:10;;;;;;;2.60;1.73;;;21.50;95.40;;;;;;5071513;28;20429;-50
2021/12/09 13:29:50;;;;;;;4.05;1.80;;;21.40;95.40;;;;;;5073470;28;20071;-58
2021/12/09 13:33:29;;;;;;;4.35;2.03;;;21.40;95.40;;;;;;5071242;28;20387;-59
2021/12/09 13:45:54;;;;;;;2.85;1.45;;;21.40;95.40;;;;;;5074465;28;20033;-57
2021/12/09 13:47:08;;;;;;;4.57;2.75;;;21.40;95.40;;;;;;5072632;28;20024;-55
2021/12/09 13:55:16;;;;;;;4.00;1.77;;;21.30;95.40;;;;;;5072299;28;20048;-54
2021/12/09 13:57:46;;;;;;;4.78;1.77;;;21.30;95.40;;;;;;5073035;28;20040;-60
2021/12/09 14:00:26;;;;;;;7.90;2.15;;;21.30;95.30;;;;;;5068149;28;20029;-55
2021/12/09 14:03:05;;;;;;;3.70;1.60;;;21.30;95.30;;;;;;5071682;28;20085;-57
2021/12/09 14:05:51;;;;;;;2.60;1.60;;;21.30;95.30;;;;;;5073067;28;20017;-52
2021/12/09 14:08:27;;;;;;;4.28;2.17;;;21.30;95.30;;;;;;5072645;28;20033;-55